createdAt,value
2022-09-15T00:01:20.735Z,23.47
2022-09-15T00:03:49.287Z,23.54
2022-09-15T00:06:17.409Z,23.58
2022-09-15T00:08:45.158Z,23.61
2022-09-15T00:11:20.362Z,23.67
2022-09-15T00:13:48.308Z,23.75
2022-09-15T00:16:18.333Z,23.84
2022-09-15T00:18:46.299Z,23.27
2022-09-15T00:21:15.461Z,22.47
2022-09-15T00:23:43.401Z,21.78
2022-09-15T00:26:12.610Z,21.22
2022-09-15T00:28:40.409Z,20.73
2022-09-15T00:31:09.782Z,20.59
2022-09-15T00:33:37.841Z,21.30
2022-09-15T00:36:10.892Z,22.01
2022-09-15T00:38:39.318Z,22.52
2022-09-15T00:41:08.478Z,22.86
2022-09-15T00:43:49.115Z,23.08
2022-09-15T00:46:20.830Z,23.31
2022-09-15T00:48:51.939Z,23.32
2022-09-15T00:51:20.898Z,22.58
2022-09-15T00:53:48.868Z,21.75
2022-09-15T00:56:19.860Z,21.14
2022-09-15T00:58:55.612Z,20.68
2022-09-15T01:01:23.996Z,20.28
2022-09-15T01:03:55.865Z,19.95
2022-09-15T01:06:32.218Z,20.14
2022-09-15T01:09:12.062Z,21.14
2022-09-15T01:11:39.829Z,21.81
2022-09-15T01:14:08.060Z,22.11
2022-09-15T01:16:52.258Z,22.31
2022-09-15T01:19:32.362Z,22.55
2022-09-15T01:22:18.806Z,22.85
2022-09-15T01:25:02.028Z,23.07
2022-09-15T01:27:48.457Z,22.66
2022-09-15T01:30:19.243Z,21.77
2022-09-15T01:33:07.222Z,21.09
2022-09-15T01:35:38.017Z,20.56
2022-09-15T01:38:14.776Z,20.19
2022-09-15T01:40:51.002Z,20.39
2022-09-15T01:43:20.279Z,21.38
2022-09-15T01:45:48.315Z,21.99
2022-09-15T01:48:18.696Z,22.36
2022-09-15T01:50:47.380Z,22.67
2022-09-15T01:53:16.242Z,22.88
2022-09-15T01:56:07.420Z,22.33
2022-09-15T01:58:35.529Z,21.40
2022-09-15T02:01:07.809Z,20.77
2022-09-15T02:03:39.778Z,20.25
2022-09-15T02:06:09.206Z,19.81
2022-09-15T02:08:38.569Z,19.43
2022-09-15T02:11:18.306Z,19.12
2022-09-15T02:13:52.224Z,19.65
2022-09-15T02:16:21.314Z,20.62
2022-09-15T02:18:56.778Z,21.25
2022-09-15T02:21:30.052Z,21.70
2022-09-15T02:24:01.372Z,22.08
2022-09-15T02:26:29.470Z,22.38
2022-09-15T02:28:57.226Z,22.38
2022-09-15T02:31:25.177Z,21.71
2022-09-15T02:33:58.095Z,20.93
2022-09-15T02:36:26.025Z,20.30
2022-09-15T02:38:58.270Z,19.79
2022-09-15T02:41:29.125Z,19.36
2022-09-15T02:43:58.155Z,19.01
2022-09-15T02:46:25.884Z,19.46
2022-09-15T02:48:57.190Z,20.31
2022-09-15T02:51:25.618Z,20.87
2022-09-15T02:53:55.297Z,21.23
2022-09-15T02:56:23.849Z,21.46
2022-09-15T02:58:51.592Z,21.66
2022-09-15T03:01:19.409Z,21.86
2022-09-15T03:03:47.266Z,22.01
2022-09-15T03:06:17.746Z,21.45
2022-09-15T03:08:51.097Z,20.67
2022-09-15T03:11:20.422Z,20.03
2022-09-15T03:13:48.560Z,19.53
2022-09-15T03:16:16.480Z,19.15
2022-09-15T03:18:44.316Z,18.90
2022-09-15T03:21:13.510Z,19.52
2022-09-15T03:23:43.723Z,20.39
2022-09-15T03:26:11.702Z,20.87
2022-09-15T03:28:42.509Z,21.16
2022-09-15T03:31:10.265Z,21.39
2022-09-15T03:33:39.301Z,21.57
2022-09-15T03:36:07.391Z,21.18
2022-09-15T03:38:35.138Z,20.48
2022-09-15T03:41:07.589Z,19.83
2022-09-15T03:43:38.781Z,19.32
2022-09-15T03:46:07.034Z,18.91
2022-09-15T03:48:37.574Z,18.92
2022-09-15T03:51:06.805Z,19.76
2022-09-15T03:53:36.227Z,20.59
2022-09-15T03:56:08.516Z,21.06
2022-09-15T03:58:38.677Z,21.36
2022-09-15T04:01:06.656Z,21.65
2022-09-15T04:03:40.250Z,21.91
2022-09-15T04:06:11.547Z,22.13
2022-09-15T04:08:39.449Z,21.75
2022-09-15T04:11:09.467Z,20.90
2022-09-15T04:13:38.228Z,20.15
2022-09-15T04:16:08.187Z,19.55
2022-09-15T04:18:36.151Z,19.06
2022-09-15T04:21:05.951Z,18.68
2022-09-15T04:23:34.057Z,18.34
2022-09-15T04:26:06.901Z,18.35
2022-09-15T04:28:35.550Z,19.35
2022-09-15T04:31:13.682Z,20.21
2022-09-15T04:33:42.326Z,20.70
2022-09-15T04:36:11.266Z,20.99
2022-09-15T04:38:39.830Z,21.13
2022-09-15T04:41:08.891Z,21.39
2022-09-15T04:43:39.213Z,21.62
2022-09-15T04:46:07.796Z,21.74
2022-09-15T04:48:35.657Z,21.77
2022-09-15T04:51:04.283Z,21.15
2022-09-15T04:53:32.329Z,20.41
2022-09-15T04:56:08.901Z,19.80
2022-09-15T04:58:51.331Z,19.32
2022-09-15T05:01:20.585Z,18.95
2022-09-15T05:03:50.150Z,19.44
2022-09-15T05:06:19.401Z,20.41
2022-09-15T05:08:49.820Z,21.05
2022-09-15T05:11:18.357Z,21.43
2022-09-15T05:13:46.598Z,21.70
2022-09-15T05:16:18.588Z,21.87
2022-09-15T05:18:46.984Z,22.05
2022-09-15T05:21:16.260Z,21.83
2022-09-15T05:23:44.230Z,21.00
2022-09-15T05:26:14.480Z,20.16
2022-09-15T05:28:43.060Z,19.49
2022-09-15T05:31:11.871Z,19.03
2022-09-15T05:33:40.886Z,19.60
2022-09-15T05:36:09.011Z,20.47
2022-09-15T05:38:40.943Z,21.02
2022-09-15T05:41:10.540Z,21.33
2022-09-15T05:43:39.666Z,21.46
2022-09-15T05:46:07.836Z,21.63
2022-09-15T05:48:35.989Z,21.46
2022-09-15T05:51:04.443Z,20.72
2022-09-15T05:53:34.150Z,19.93
2022-09-15T05:56:03.398Z,19.32
2022-09-15T05:58:31.919Z,18.92
2022-09-15T06:01:08.816Z,19.50
2022-09-15T06:03:36.931Z,20.32
2022-09-15T06:06:05.446Z,20.63
2022-09-15T06:08:33.888Z,20.80
2022-09-15T06:11:02.943Z,20.89
2022-09-15T06:13:30.824Z,20.99
2022-09-15T06:16:02.887Z,21.06
2022-09-15T06:18:30.883Z,21.11
2022-09-15T06:21:04.940Z,21.17
2022-09-15T06:23:32.975Z,21.33
2022-09-15T06:26:04.826Z,21.34
2022-09-15T06:28:35.536Z,20.74
2022-09-15T06:31:04.375Z,20.04
2022-09-15T06:33:32.970Z,19.49
2022-09-15T06:36:02.168Z,19.11
2022-09-15T06:38:32.690Z,18.86
2022-09-15T06:41:00.623Z,19.32
2022-09-15T06:43:31.741Z,20.04
2022-09-15T06:46:16.767Z,20.63
2022-09-15T06:48:48.160Z,21.12
2022-09-15T06:51:17.436Z,21.51
2022-09-15T06:53:47.247Z,21.63
2022-09-15T06:56:19.310Z,21.07
2022-09-15T06:58:49.496Z,20.38
2022-09-15T07:01:33.880Z,19.78
2022-09-15T07:04:02.882Z,19.61
2022-09-15T07:06:31.480Z,20.32
2022-09-15T07:08:59.533Z,21.19
2022-09-15T07:11:29.115Z,21.82
2022-09-15T07:13:57.110Z,22.17
2022-09-15T07:16:31.041Z,21.60
2022-09-15T07:19:01.335Z,20.81
2022-09-15T07:21:31.868Z,20.28
2022-09-15T07:24:08.838Z,19.91
2022-09-15T07:26:36.728Z,19.95
2022-09-15T07:29:07.447Z,20.93
2022-09-15T07:31:36.916Z,21.80
2022-09-15T07:34:07.091Z,22.06
2022-09-15T07:36:35.294Z,21.40
2022-09-15T07:39:04.454Z,20.77
2022-09-15T07:41:32.486Z,20.37
2022-09-15T07:44:03.546Z,20.62
2022-09-15T07:46:32.202Z,21.61
2022-09-15T07:49:03.396Z,22.32
2022-09-15T07:51:31.615Z,22.07
2022-09-15T07:53:59.431Z,21.48
2022-09-15T07:56:29.891Z,21.00
2022-09-15T07:58:58.420Z,20.75
2022-09-15T08:01:26.458Z,20.48
2022-09-15T08:03:56.123Z,20.24
2022-09-15T08:06:29.382Z,20.08
2022-09-15T08:09:00.796Z,20.60
2022-09-15T08:11:31.779Z,21.70
2022-09-15T08:14:01.403Z,21.96
2022-09-15T08:16:29.298Z,21.55
2022-09-15T08:18:57.282Z,21.07
2022-09-15T08:21:25.885Z,20.74
2022-09-15T08:23:56.171Z,20.51
2022-09-15T08:26:25.078Z,20.43
2022-09-15T08:28:54.350Z,20.62
2022-09-15T08:31:24.104Z,21.70
2022-09-15T08:33:53.720Z,22.30
2022-09-15T08:36:24.593Z,22.03
2022-09-15T08:38:52.705Z,21.74
2022-09-15T08:41:23.023Z,21.57
2022-09-15T08:43:56.989Z,21.44
2022-09-15T08:46:29.795Z,21.39
2022-09-15T08:49:30.621Z,21.35
2022-09-15T08:52:05.437Z,21.18
2022-09-15T08:54:35.378Z,21.00
2022-09-15T08:57:03.399Z,20.83
2022-09-15T08:59:35.394Z,20.71
2022-09-15T09:02:13.250Z,20.61
2022-09-15T09:05:28.047Z,20.48
2022-09-15T09:07:57.847Z,20.37
2022-09-15T09:10:36.546Z,20.22
2022-09-15T09:13:09.015Z,20.09
2022-09-15T09:15:43.945Z,20.12
2022-09-15T09:18:12.003Z,20.25
2022-09-15T09:20:55.671Z,20.33
2022-09-15T09:23:25.169Z,20.32
2022-09-15T09:25:53.317Z,20.31
2022-09-15T09:28:28.022Z,20.25
2022-09-15T09:30:57.912Z,20.16
2022-09-15T09:33:28.602Z,20.05
2022-09-15T09:35:58.620Z,19.97
2022-09-15T09:38:31.353Z,19.94
2022-09-15T09:41:02.856Z,19.94
2022-09-15T09:43:32.359Z,19.89
2022-09-15T09:46:02.070Z,19.83
2022-09-15T09:48:30.269Z,19.98
2022-09-15T09:51:01.408Z,20.99
2022-09-15T09:53:31.298Z,22.12
2022-09-15T09:56:13.035Z,22.92
2022-09-15T09:58:44.009Z,23.00
2022-09-15T10:01:13.660Z,22.44
2022-09-15T10:03:43.371Z,21.96
2022-09-15T10:06:14.295Z,21.55
2022-09-15T10:09:00.689Z,21.18
2022-09-15T10:11:41.158Z,20.90
2022-09-15T10:14:16.871Z,20.69
2022-09-15T10:16:44.806Z,20.50
2022-09-15T10:19:13.583Z,20.38
2022-09-15T10:21:41.654Z,20.29
2022-09-15T10:24:29.767Z,20.22
2022-09-15T10:27:16.750Z,20.22
2022-09-15T10:29:44.963Z,20.21
2022-09-15T10:32:18.327Z,20.20
2022-09-15T10:34:49.313Z,20.26
2022-09-15T10:37:23.562Z,20.42
2022-09-15T10:39:55.364Z,20.61
2022-09-15T10:42:31.026Z,20.71
2022-09-15T10:45:03.980Z,20.94
2022-09-15T10:47:51.769Z,21.26
2022-09-15T10:50:42.911Z,21.67
2022-09-15T10:53:10.933Z,21.93
2022-09-15T10:55:59.043Z,22.01
2022-09-15T10:58:29.891Z,22.11
2022-09-15T11:01:01.887Z,22.19
2022-09-15T11:03:43.705Z,22.19
2022-09-15T11:06:31.999Z,22.01
2022-09-15T11:09:06.022Z,22.01
2022-09-15T11:12:13.594Z,22.18
2022-09-15T11:14:48.907Z,22.14
2022-09-15T11:17:22.893Z,22.12
2022-09-15T11:19:53.658Z,22.19
2022-09-15T11:22:25.298Z,22.29
2022-09-15T11:24:58.828Z,22.43
2022-09-15T11:27:36.717Z,22.55
2022-09-15T11:30:23.533Z,22.61
2022-09-15T11:33:04.646Z,22.68
2022-09-15T11:35:49.163Z,22.63
2022-09-15T11:38:24.189Z,22.56
2022-09-15T11:40:57.470Z,22.55
2022-09-15T11:43:31.261Z,22.50
2022-09-15T11:45:59.086Z,22.42
2022-09-15T11:48:39.816Z,22.39
2022-09-15T11:51:07.489Z,22.52
2022-09-15T11:53:43.047Z,22.73
2022-09-15T11:56:14.454Z,23.02
2022-09-15T11:58:55.022Z,23.17
2022-09-15T12:01:29.173Z,23.29
2022-09-15T12:03:59.487Z,23.34
2022-09-15T12:06:46.395Z,23.25
2022-09-15T12:09:16.071Z,23.19
2022-09-15T12:11:47.134Z,23.17
2022-09-15T12:14:35.575Z,23.10
2022-09-15T12:17:06.550Z,23.00
2022-09-15T12:19:46.101Z,22.84
2022-09-15T12:22:16.802Z,22.63
2022-09-15T12:24:50.934Z,22.40
2022-09-15T12:27:20.193Z,22.13
2022-09-15T12:29:51.506Z,22.00
2022-09-15T12:32:26.909Z,22.00
2022-09-15T12:35:07.952Z,22.03
2022-09-15T12:37:46.871Z,21.98
2022-09-15T12:40:33.721Z,21.87
2022-09-15T12:43:16.447Z,21.84
2022-09-15T12:45:52.770Z,21.82
2022-09-15T12:48:20.923Z,21.73
2022-09-15T12:50:55.425Z,21.66
2022-09-15T12:53:24.706Z,21.69
2022-09-15T12:55:56.976Z,21.77
2022-09-15T12:58:24.702Z,21.83
2022-09-15T13:01:17.032Z,21.89
2022-09-15T13:06:26.133Z,21.89
2022-09-15T13:09:06.650Z,21.84
2022-09-15T13:11:37.413Z,21.72
2022-09-15T13:14:12.079Z,21.57
2022-09-15T13:16:40.171Z,21.39
2022-09-15T13:19:17.164Z,21.23
2022-09-15T13:21:52.180Z,21.03
2022-09-15T13:24:38.841Z,20.84
2022-09-15T13:27:06.745Z,20.68
2022-09-15T13:29:41.274Z,20.52
2022-09-15T13:32:29.245Z,20.39
2022-09-15T13:35:19.564Z,20.24
2022-09-15T13:38:12.561Z,20.16
2022-09-15T13:41:05.428Z,20.04
2022-09-15T13:43:36.279Z,19.96
2022-09-15T13:46:12.057Z,19.90
2022-09-15T13:48:47.165Z,19.83
2022-09-15T13:51:25.743Z,19.75
2022-09-15T13:53:59.711Z,19.67
2022-09-15T13:56:35.611Z,19.64
2022-09-15T13:59:14.091Z,19.62
2022-09-15T14:01:43.340Z,19.61
2022-09-15T14:04:21.680Z,19.58
2022-09-15T14:06:50.279Z,19.59
2022-09-15T14:09:21.211Z,19.65
2022-09-15T14:11:49.696Z,19.72
2022-09-15T14:14:37.249Z,19.82
2022-09-15T14:17:05.572Z,19.91
2022-09-15T14:19:34.851Z,20.01
2022-09-15T14:22:24.833Z,20.17
2022-09-15T14:24:53.184Z,20.38
2022-09-15T14:27:22.262Z,20.65
2022-09-15T14:29:54.531Z,20.92
2022-09-15T14:32:23.439Z,21.18
2022-09-15T14:34:51.179Z,21.31
2022-09-15T14:37:28.605Z,21.47
2022-09-15T14:39:57.537Z,21.62
2022-09-15T14:42:41.644Z,21.79
2022-09-15T14:48:07.944Z,22.39
2022-09-15T14:50:35.895Z,22.30
2022-09-15T14:53:04.043Z,22.06
2022-09-15T14:55:33.940Z,21.85
2022-09-15T14:58:04.953Z,21.97
2022-09-15T15:00:34.729Z,22.45
2022-09-15T15:03:03.371Z,22.60
2022-09-15T15:05:35.856Z,22.53
2022-09-15T15:08:04.702Z,22.34
2022-09-15T15:10:35.887Z,22.35
2022-09-15T15:13:07.900Z,22.21
2022-09-15T15:15:37.174Z,21.92
2022-09-15T15:18:05.722Z,21.61
2022-09-15T15:20:33.711Z,21.26
2022-09-15T15:23:11.247Z,20.93
2022-09-15T15:25:39.132Z,20.62
2022-09-15T15:28:06.829Z,20.38
2022-09-15T15:30:36.382Z,20.18
2022-09-15T15:33:06.930Z,19.93
2022-09-15T15:35:35.867Z,19.69
2022-09-15T15:38:05.756Z,19.51
2022-09-15T15:40:35.486Z,19.37
2022-09-15T15:43:06.153Z,19.19
2022-09-15T15:45:35.660Z,19.05
2022-09-15T15:48:04.486Z,18.96
2022-09-15T15:50:32.743Z,18.89
2022-09-15T15:53:02.752Z,18.84
2022-09-15T15:55:40.237Z,18.80
2022-09-15T15:58:09.108Z,18.75
2022-09-15T16:00:40.024Z,18.71
2022-09-15T16:03:11.261Z,18.65
2022-09-15T16:05:39.406Z,18.60
2022-09-15T16:08:10.360Z,18.55
2022-09-15T16:10:39.389Z,18.49
2022-09-15T16:13:07.430Z,18.44
2022-09-15T16:15:35.344Z,18.41
2022-09-15T16:18:04.277Z,18.39
2022-09-15T16:20:32.024Z,18.37
2022-09-15T16:22:59.739Z,18.34
2022-09-15T16:25:39.020Z,18.32
2022-09-15T16:28:07.037Z,18.29
2022-09-15T16:30:35.232Z,18.26
2022-09-15T16:33:03.083Z,18.22
2022-09-15T16:35:33.492Z,18.19
2022-09-15T16:38:04.738Z,18.15
2022-09-15T16:40:32.725Z,18.11
2022-09-15T16:43:00.667Z,18.05
2022-09-15T16:45:38.245Z,17.99
2022-09-15T16:48:11.643Z,17.94
2022-09-15T16:50:45.836Z,17.90
2022-09-15T16:53:18.478Z,17.84
2022-09-15T16:55:46.494Z,17.80
2022-09-15T16:58:15.396Z,17.75
2022-09-15T17:00:43.677Z,17.73
2022-09-15T17:03:15.160Z,17.71
2022-09-15T17:05:48.510Z,17.67
2022-09-15T17:08:20.391Z,17.61
2022-09-15T17:10:48.669Z,17.57
2022-09-15T17:13:17.684Z,17.52
2022-09-15T17:15:45.994Z,17.48
2022-09-15T17:18:15.603Z,17.43
2022-09-15T17:20:44.231Z,17.40
2022-09-15T17:23:25.430Z,17.37
2022-09-15T17:25:57.693Z,17.34
2022-09-15T17:28:28.114Z,17.32
2022-09-15T17:30:57.531Z,17.32
2022-09-15T17:33:25.931Z,17.31
2022-09-15T17:35:54.664Z,17.28
2022-09-15T17:38:23.196Z,17.30
2022-09-15T17:40:54.652Z,18.08
2022-09-15T17:43:24.487Z,19.38
2022-09-15T17:45:54.336Z,20.18
2022-09-15T17:48:25.751Z,20.65
2022-09-15T17:50:57.906Z,20.45
2022-09-15T17:53:31.116Z,19.82
2022-09-15T17:55:59.253Z,19.27
2022-09-15T17:58:31.551Z,18.88
2022-09-15T18:01:01.860Z,18.56
2022-09-15T18:03:31.239Z,18.28
2022-09-15T18:06:06.868Z,18.07
2022-09-15T18:08:38.346Z,17.88
2022-09-15T18:11:15.569Z,17.71
2022-09-15T18:13:45.711Z,17.54
2022-09-15T18:16:15.012Z,17.40
2022-09-15T18:18:44.607Z,17.84
2022-09-15T18:21:24.887Z,18.94
2022-09-15T18:23:53.565Z,19.01
2022-09-15T18:26:26.493Z,18.50
2022-09-15T18:28:55.975Z,18.03
2022-09-15T18:31:24.693Z,17.71
2022-09-15T18:33:52.901Z,17.50
2022-09-15T18:36:20.868Z,18.15
2022-09-15T18:38:50.105Z,19.27
2022-09-15T18:41:18.777Z,19.64
2022-09-15T18:43:49.314Z,19.14
2022-09-15T18:46:18.659Z,18.52
2022-09-15T18:48:48.111Z,18.06
2022-09-15T18:51:23.837Z,17.72
2022-09-15T18:53:57.564Z,17.41
2022-09-15T18:56:25.668Z,17.17
2022-09-15T18:58:57.401Z,16.98
2022-09-15T19:01:28.731Z,16.80
2022-09-15T19:03:58.129Z,16.65
2022-09-15T19:06:29.310Z,16.74
2022-09-15T19:08:57.365Z,17.85
2022-09-15T19:11:27.371Z,19.04
2022-09-15T19:13:58.364Z,19.39
2022-09-15T19:16:46.637Z,18.78
2022-09-15T19:19:17.766Z,18.03
2022-09-15T19:21:48.437Z,17.57
2022-09-15T19:24:19.145Z,17.24
2022-09-15T19:26:47.343Z,16.98
2022-09-15T19:29:18.044Z,17.30
2022-09-15T19:31:46.073Z,18.40
2022-09-15T19:34:14.806Z,19.03
2022-09-15T19:36:43.656Z,18.73
2022-09-15T19:39:13.602Z,18.09
2022-09-15T19:41:43.168Z,17.60
2022-09-15T19:44:11.098Z,17.25
2022-09-15T19:46:39.549Z,16.96
2022-09-15T19:49:10.237Z,16.80
2022-09-15T19:51:38.774Z,17.61
2022-09-15T19:54:07.192Z,18.63
2022-09-15T19:56:35.561Z,19.25
2022-09-15T19:59:03.971Z,18.86
2022-09-15T20:01:32.797Z,18.13
2022-09-15T20:04:02.187Z,17.59
2022-09-15T20:06:32.763Z,17.21
2022-09-15T20:09:05.621Z,16.91
2022-09-15T20:11:34.086Z,16.96
2022-09-15T20:14:01.894Z,18.00
2022-09-15T20:16:32.246Z,18.89
2022-09-15T20:19:00.662Z,19.60
2022-09-15T20:21:49.372Z,19.86
2022-09-15T20:24:19.542Z,19.09
2022-09-15T20:26:47.538Z,18.35
2022-09-15T20:29:15.285Z,17.81
2022-09-15T20:31:46.580Z,17.42
2022-09-15T20:34:15.204Z,17.13
2022-09-15T20:36:43.551Z,16.90
2022-09-15T20:39:13.408Z,16.75
2022-09-15T20:41:42.275Z,17.56
2022-09-15T20:44:11.631Z,18.64
2022-09-15T20:46:39.519Z,19.28
2022-09-15T20:49:07.937Z,19.32
2022-09-15T20:51:35.618Z,18.67
2022-09-15T20:54:03.705Z,18.00
2022-09-15T20:56:32.236Z,17.50
2022-09-15T20:59:00.296Z,17.09
2022-09-15T21:01:29.556Z,16.73
2022-09-15T21:03:57.384Z,16.75
2022-09-15T21:06:26.038Z,17.74
2022-09-15T21:08:56.098Z,18.49
2022-09-15T21:11:24.818Z,18.60
2022-09-15T21:13:52.845Z,17.95
2022-09-15T21:16:21.572Z,17.30
2022-09-15T21:18:49.743Z,16.98
2022-09-15T21:21:19.306Z,17.87
2022-09-15T21:23:48.409Z,18.74
2022-09-15T21:26:17.178Z,19.10
2022-09-15T21:28:44.933Z,18.55
2022-09-15T21:31:14.944Z,17.79
2022-09-15T21:33:42.951Z,17.20
2022-09-15T21:36:10.859Z,16.83
2022-09-15T21:38:40.725Z,17.30
2022-09-15T21:41:09.799Z,18.09
2022-09-15T21:43:39.216Z,18.42
2022-09-15T21:46:08.569Z,17.89
2022-09-15T21:48:36.288Z,17.20
2022-09-15T21:51:04.816Z,16.75
2022-09-15T21:53:33.914Z,17.33
2022-09-15T21:56:02.071Z,18.16
2022-09-15T21:58:40.328Z,18.05
2022-09-15T22:01:13.791Z,17.33
2022-09-15T22:03:42.388Z,16.77
2022-09-15T22:06:12.997Z,16.61
2022-09-15T22:08:40.985Z,17.45
2022-09-15T22:11:09.037Z,18.26
2022-09-15T22:13:37.684Z,18.65
2022-09-15T22:16:06.465Z,18.03
2022-09-15T22:18:37.482Z,17.37
2022-09-15T22:21:05.351Z,16.84
2022-09-15T22:23:34.135Z,16.47
2022-09-15T22:26:02.543Z,16.85
2022-09-15T22:28:31.374Z,17.79
2022-09-15T22:30:59.692Z,18.63
2022-09-15T22:33:27.727Z,18.89
2022-09-15T22:35:55.709Z,18.23
2022-09-15T22:38:23.838Z,17.52
2022-09-15T22:40:51.698Z,17.01
2022-09-15T22:43:19.565Z,16.62
2022-09-15T22:45:47.654Z,16.42
2022-09-15T22:48:15.400Z,17.13
2022-09-15T22:50:46.447Z,18.03
2022-09-15T22:53:15.424Z,18.67
2022-09-15T22:55:43.831Z,18.29
2022-09-15T22:58:11.524Z,17.58
2022-09-15T23:04:10.344Z,16.43
2022-09-15T23:06:38.103Z,16.99
2022-09-15T23:09:07.095Z,18.04
2022-09-15T23:11:35.673Z,18.93
2022-09-15T23:14:04.380Z,18.92
2022-09-15T23:16:34.307Z,18.17
2022-09-15T23:19:02.562Z,17.48
2022-09-15T23:21:30.534Z,16.98
2022-09-15T23:23:59.418Z,16.59
2022-09-15T23:26:29.244Z,16.44
2022-09-15T23:28:57.412Z,17.22
2022-09-15T23:31:25.262Z,18.08
2022-09-15T23:33:53.388Z,18.72
2022-09-15T23:36:23.245Z,18.58
2022-09-15T23:38:51.565Z,17.80
2022-09-15T23:41:20.221Z,17.13
2022-09-15T23:43:48.997Z,16.62
2022-09-15T23:46:17.561Z,16.40
2022-09-15T23:48:45.492Z,17.22
2022-09-15T23:51:13.212Z,18.10
2022-09-15T23:53:43.414Z,18.37
2022-09-15T23:56:11.276Z,17.76
2022-09-15T23:58:39.749Z,17.05
